Time;durP1;ratioP1;P1;durP2;ratioP2;P2;SDS_P1;SDS_P2;PMS_P1;PMS_P2;Temp;Humidity;BMP_temperature;BMP_pressure;BME280_temperature;BME280_humidity;BME280_pressure;Samples;Min_cycle;Max_cycle;Signal;HPM_P1;HPM_P2
2022/10/24 00:00:45;;;;;;;25.23;20.77;;;13.70;99.90;;;;;;5089927;28;20234;-49
2022/10/24 00:03:12;;;;;;;26.77;22.20;;;13.70;99.90;;;;;;5090100;28;20245;-50
2022/10/24 00:05:44;;;;;;;24.40;21.07;;;13.70;99.90;;;;;;5089012;28;20499;-48
2022/10/24 00:08:10;;;;;;;23.10;20.40;;;13.80;99.90;;;;;;5089236;28;20538;-49
2022/10/24 00:10:36;;;;;;;22.20;19.80;;;13.80;99.90;;;;;;5089030;28;20878;-51
2022/10/24 00:13:02;;;;;;;23.23;19.67;;;13.70;99.90;;;;;;5090207;28;20890;-49
2022/10/24 00:15:28;;;;;;;20.97;18.60;;;13.70;99.90;;;;;;5088491;28;20322;-50
2022/10/24 00:17:53;;;;;;;21.97;19.30;;;13.70;99.90;;;;;;5090339;28;20499;-55
2022/10/24 00:20:19;;;;;;;21.63;19.30;;;13.70;99.90;;;;;;5088788;28;20264;-48
2022/10/24 00:22:45;;;;;;;21.40;19.10;;;13.70;99.90;;;;;;5088948;28;20231;-51
2022/10/24 00:25:11;;;;;;;19.80;17.70;;;13.70;99.90;;;;;;5087946;28;20929;-50
2022/10/24 00:27:36;;;;;;;22.33;19.00;;;13.70;99.90;;;;;;5090806;28;20280;-48
2022/10/24 00:30:04;;;;;;;19.63;17.27;;;13.60;99.90;;;;;;5088930;28;20229;-51
2022/10/24 00:32:29;;;;;;;20.57;17.80;;;13.60;99.90;;;;;;5089534;28;20228;-54
2022/10/24 00:34:55;;;;;;;20.57;18.07;;;13.70;99.90;;;;;;5089063;28;20773;-50
2022/10/24 00:37:21;;;;;;;19.43;17.30;;;13.70;99.90;;;;;;5089401;28;20201;-51
2022/10/24 00:39:46;;;;;;;22.40;17.60;;;13.80;99.90;;;;;;5087800;28;21015;-52
2022/10/24 00:42:12;;;;;;;23.90;16.83;;;13.70;99.90;;;;;;5089698;28;20281;-52
2022/10/24 00:44:40;;;;;;;21.17;17.73;;;13.80;99.90;;;;;;5088505;28;20324;-52
2022/10/24 00:47:38;;;;;;;19.07;17.07;;;13.80;99.90;;;;;;5088943;28;20195;-51
2022/10/24 00:50:12;;;;;;;18.10;16.07;;;13.90;99.90;;;;;;5035543;28;20485;-49
2022/10/24 00:52:43;;;;;;;18.30;15.67;;;13.90;99.90;;;;;;5087848;28;20445;-54
2022/10/24 00:55:10;;;;;;;20.87;15.80;;;13.90;99.90;;;;;;5085214;28;20444;-53
2022/10/24 00:57:38;;;;;;;18.40;16.40;;;14.00;99.90;;;;;;5089598;28;20422;-51
2022/10/24 01:00:26;;;;;;;16.23;14.50;;;14.00;99.90;;;;;;5087854;28;20533;-51
2022/10/24 01:02:52;;;;;;;17.03;15.27;;;14.00;99.90;;;;;;5083093;28;20564;-52
2022/10/24 01:05:20;;;;;;;16.03;14.30;;;14.10;99.90;;;;;;5088565;28;21000;-50
2022/10/24 01:07:50;;;;;;;17.60;14.73;;;14.10;99.90;;;;;;5088780;28;20923;-53
2022/10/24 01:10:46;;;;;;;18.00;14.93;;;14.10;99.90;;;;;;5087139;28;20598;-53
2022/10/24 01:13:31;;;;;;;21.70;16.10;;;14.20;99.90;;;;;;5085191;28;20465;-52
2022/10/24 01:16:14;;;;;;;17.13;15.43;;;14.20;99.90;;;;;;5088322;28;21012;-52
2022/10/24 01:18:44;;;;;;;16.73;15.03;;;14.20;99.90;;;;;;5087260;28;20442;-54
2022/10/24 01:21:23;;;;;;;15.97;14.23;;;14.20;99.90;;;;;;5088521;28;20480;-50
2022/10/24 01:23:56;;;;;;;16.63;14.83;;;14.20;99.90;;;;;;5087026;28;20438;-56
2022/10/24 01:26:43;;;;;;;16.40;14.80;;;14.30;99.90;;;;;;5086682;28;20646;-55
2022/10/24 01:29:39;;;;;;;17.20;13.67;;;14.30;99.90;;;;;;5080707;28;20623;-50
2022/10/24 01:32:09;;;;;;;17.47;15.27;;;14.40;99.90;;;;;;5088489;28;20975;-50
2022/10/24 01:35:10;;;;;;;16.63;14.93;;;14.40;99.90;;;;;;5088400;28;20843;-49
2022/10/24 01:37:50;;;;;;;17.73;15.33;;;14.40;99.90;;;;;;5086327;28;20458;-53
2022/10/24 01:40:25;;;;;;;16.70;14.90;;;14.40;99.90;;;;;;5087647;28;20465;-50
2022/10/24 01:42:54;;;;;;;19.00;17.03;;;14.40;99.90;;;;;;5087645;28;20435;-52
2022/10/24 01:45:31;;;;;;;17.67;15.77;;;14.40;99.90;;;;;;5085404;28;20437;-55
2022/10/24 01:48:00;;;;;;;18.03;15.83;;;14.50;99.90;;;;;;5060750;28;20439;-50
2022/10/24 01:50:27;;;;;;;21.37;16.60;;;14.40;99.90;;;;;;5084862;28;20482;-51
2022/10/24 01:52:56;;;;;;;21.73;16.77;;;14.30;99.90;;;;;;5087352;28;20926;-50
2022/10/24 01:55:22;;;;;;;17.87;15.70;;;14.30;99.90;;;;;;5088278;28;20452;-50
2022/10/24 01:57:48;;;;;;;18.90;16.93;;;14.30;99.90;;;;;;5087127;28;20571;-51
2022/10/24 02:00:21;;;;;;;19.80;17.43;;;14.30;99.90;;;;;;5064473;28;20878;-52
2022/10/24 02:02:54;;;;;;;19.30;16.60;;;14.30;99.90;;;;;;5085050;28;20239;-51
2022/10/24 02:05:43;;;;;;;17.90;16.00;;;14.30;99.90;;;;;;5087804;28;20444;-55
2022/10/24 02:08:17;;;;;;;27.03;18.20;;;14.30;99.90;;;;;;5087007;28;20434;-49
2022/10/24 02:10:47;;;;;;;18.63;16.73;;;14.20;99.90;;;;;;5086866;28;20474;-53
2022/10/24 02:13:25;;;;;;;19.20;17.10;;;14.30;99.90;;;;;;5086090;28;20931;-52
2022/10/24 02:15:54;;;;;;;19.80;16.57;;;14.30;99.90;;;;;;5085320;28;20768;-49
2022/10/24 02:18:19;;;;;;;19.37;15.93;;;14.30;99.90;;;;;;5087550;28;20504;-51
2022/10/24 02:20:57;;;;;;;17.57;14.90;;;14.30;99.90;;;;;;5087942;28;20441;-49
2022/10/24 02:23:37;;;;;;;16.70;14.87;;;14.30;99.90;;;;;;5086594;28;20261;-51
2022/10/24 02:26:07;;;;;;;18.33;14.90;;;14.40;99.90;;;;;;5087182;28;20881;-51
2022/10/24 02:28:38;;;;;;;16.87;14.60;;;14.40;99.90;;;;;;5086997;28;20942;-51
2022/10/24 02:31:16;;;;;;;18.67;14.00;;;14.40;99.90;;;;;;5086961;28;20473;-51
2022/10/24 02:33:44;;;;;;;17.03;15.20;;;14.50;99.90;;;;;;5086764;28;20454;-49
2022/10/24 02:36:13;;;;;;;16.53;14.47;;;14.50;99.90;;;;;;5086477;28;20442;-52
2022/10/24 02:38:43;;;;;;;17.87;14.30;;;14.50;99.90;;;;;;5070040;28;20499;-46
2022/10/24 02:41:13;;;;;;;17.00;14.70;;;14.50;99.90;;;;;;5086626;28;20469;-51
2022/10/24 02:43:41;;;;;;;16.90;14.50;;;14.50;99.90;;;;;;5087152;28;20472;-51
2022/10/24 02:46:09;;;;;;;20.50;15.67;;;14.50;99.90;;;;;;5086284;28;20452;-47
2022/10/24 02:48:39;;;;;;;18.50;14.97;;;14.40;99.90;;;;;;5068162;28;20446;-48
2022/10/24 02:51:05;;;;;;;20.07;15.70;;;14.50;99.90;;;;;;5085632;28;20485;-47
2022/10/24 02:53:35;;;;;;;19.80;15.90;;;14.50;99.90;;;;;;5086850;28;20451;-52
2022/10/24 02:56:00;;;;;;;18.40;15.33;;;14.50;99.90;;;;;;5086516;28;20442;-52
2022/10/24 02:58:26;;;;;;;20.40;16.30;;;14.50;99.90;;;;;;5087557;28;20789;-51
2022/10/24 03:00:51;;;;;;;19.53;15.80;;;14.40;99.90;;;;;;5086729;28;20205;-49
2022/10/24 03:03:17;;;;;;;19.40;16.47;;;14.40;99.90;;;;;;5088042;28;20754;-53
2022/10/24 03:05:42;;;;;;;21.87;16.10;;;14.50;99.90;;;;;;5085513;28;20220;-53
2022/10/24 03:08:08;;;;;;;21.53;17.47;;;14.50;99.90;;;;;;5086084;28;20228;-51
2022/10/24 03:10:33;;;;;;;18.93;16.63;;;14.40;99.90;;;;;;5087299;28;20212;-52
2022/10/24 03:12:59;;;;;;;19.63;15.90;;;14.40;99.90;;;;;;5087602;28;20681;-50
2022/10/24 03:15:25;;;;;;;19.70;17.50;;;14.30;99.90;;;;;;5089785;28;20196;-51
2022/10/24 03:17:51;;;;;;;20.93;16.47;;;14.40;99.90;;;;;;5091506;28;20457;-46
2022/10/24 03:20:16;;;;;;;17.70;15.80;;;14.40;99.90;;;;;;5091154;28;20529;-52
2022/10/24 03:22:42;;;;;;;20.30;16.50;;;14.40;99.90;;;;;;5087984;28;20254;-49
2022/10/24 03:25:10;;;;;;;18.70;16.20;;;14.40;99.90;;;;;;5072614;28;20295;-51
2022/10/24 03:27:35;;;;;;;21.10;17.20;;;14.30;99.90;;;;;;5090528;28;20190;-54
2022/10/24 03:30:01;;;;;;;18.07;16.17;;;14.30;99.90;;;;;;5070611;28;20868;-50
2022/10/24 03:32:27;;;;;;;20.07;17.37;;;14.30;99.90;;;;;;5090558;28;20189;-54
2022/10/24 03:34:52;;;;;;;20.20;17.50;;;14.30;99.90;;;;;;5090555;28;20203;-49
2022/10/24 03:37:18;;;;;;;18.97;16.97;;;14.20;99.90;;;;;;5090041;28;20196;-51
2022/10/24 03:39:44;;;;;;;23.80;17.17;;;14.20;99.90;;;;;;5089558;28;20199;-54
2022/10/24 03:42:10;;;;;;;19.80;16.87;;;14.20;99.90;;;;;;5090425;28;20199;-50
2022/10/24 03:44:35;;;;;;;20.17;16.57;;;14.10;99.90;;;;;;5088871;28;20496;-52
2022/10/24 03:47:01;;;;;;;18.73;16.60;;;14.20;99.90;;;;;;5089682;28;20204;-49
2022/10/24 03:49:27;;;;;;;19.70;17.30;;;14.00;99.90;;;;;;5090936;28;20228;-49
2022/10/24 03:51:52;;;;;;;19.37;16.30;;;14.00;99.90;;;;;;5089302;28;20203;-52
2022/10/24 03:54:18;;;;;;;17.80;15.80;;;14.00;99.90;;;;;;5072759;28;20552;-50
2022/10/24 03:56:44;;;;;;;18.80;16.67;;;13.90;99.90;;;;;;5088062;28;20686;-49
2022/10/24 03:59:09;;;;;;;17.90;15.43;;;13.90;99.90;;;;;;5081255;28;20203;-50
2022/10/24 04:01:35;;;;;;;17.73;15.93;;;13.90;99.90;;;;;;5088265;28;20936;-51
2022/10/24 04:04:01;;;;;;;18.50;15.70;;;13.90;99.90;;;;;;5089851;28;20214;-51
2022/10/24 04:06:26;;;;;;;18.87;16.00;;;13.80;99.90;;;;;;5088693;28;20235;-48
2022/10/24 04:08:52;;;;;;;17.40;13.80;;;13.80;99.90;;;;;;5088887;28;20523;-53
2022/10/24 04:11:18;;;;;;;20.90;15.10;;;13.80;99.90;;;;;;5088573;28;20232;-53
2022/10/24 04:13:43;;;;;;;19.07;15.40;;;13.80;99.90;;;;;;5088974;28;20205;-51
2022/10/24 04:16:09;;;;;;;15.47;13.87;;;13.90;99.90;;;;;;5088723;28;20199;-48
2022/10/24 04:18:35;;;;;;;16.30;14.03;;;14.00;99.90;;;;;;5069707;28;20195;-49
2022/10/24 04:21:00;;;;;;;16.87;13.33;;;14.00;99.90;;;;;;5086796;28;20199;-54
2022/10/24 04:23:26;;;;;;;15.00;12.93;;;14.00;99.90;;;;;;5079129;28;20457;-54
2022/10/24 04:25:52;;;;;;;15.30;13.10;;;14.00;99.90;;;;;;5087553;28;20658;-51
2022/10/24 04:28:18;;;;;;;18.93;14.30;;;14.00;99.90;;;;;;5088831;28;20541;-52
2022/10/24 04:30:44;;;;;;;18.50;14.40;;;14.00;99.90;;;;;;5088989;28;20819;-52
2022/10/24 04:33:09;;;;;;;17.47;13.77;;;14.00;99.90;;;;;;5088593;28;20292;-53
2022/10/24 04:35:35;;;;;;;15.77;13.33;;;14.00;99.90;;;;;;5085872;28;20435;-51
2022/10/24 04:38:01;;;;;;;17.70;14.70;;;13.90;99.90;;;;;;5088228;28;20188;-55
2022/10/24 04:40:26;;;;;;;16.83;14.20;;;13.90;99.90;;;;;;5089586;28;20694;-53
2022/10/24 04:42:52;;;;;;;16.60;14.80;;;13.90;99.90;;;;;;5088664;28;20191;-53
2022/10/24 04:45:17;;;;;;;15.97;13.53;;;13.90;99.90;;;;;;5087698;28;20552;-51
2022/10/24 04:47:43;;;;;;;13.90;12.40;;;13.90;99.90;;;;;;5088902;28;20204;-55
2022/10/24 04:50:09;;;;;;;18.33;15.07;;;13.90;99.90;;;;;;5089692;28;20216;-48
2022/10/24 04:52:34;;;;;;;17.00;15.17;;;13.80;99.90;;;;;;5089704;28;20196;-48
2022/10/24 04:55:00;;;;;;;16.73;14.93;;;13.80;99.90;;;;;;5089461;28;20295;-48
2022/10/24 04:57:25;;;;;;;16.87;13.40;;;13.70;99.90;;;;;;5089494;28;20249;-48
2022/10/24 04:59:51;;;;;;;19.27;15.53;;;13.70;99.90;;;;;;5089512;28;20235;-50
2022/10/24 05:02:16;;;;;;;17.13;14.60;;;13.70;99.90;;;;;;5087435;28;20199;-49
2022/10/24 05:04:42;;;;;;;17.90;13.70;;;13.70;99.90;;;;;;5089374;28;20206;-51
2022/10/24 05:07:08;;;;;;;15.53;13.87;;;13.60;99.90;;;;;;5089369;28;20237;-54
2022/10/24 05:09:33;;;;;;;15.23;13.27;;;13.60;99.90;;;;;;5089230;28;20188;-51
2022/10/24 05:11:59;;;;;;;16.40;12.67;;;13.60;99.90;;;;;;5089728;28;20198;-46
2022/10/24 05:14:24;;;;;;;17.37;11.97;;;13.50;99.90;;;;;;5089435;28;20255;-50
2022/10/24 05:16:50;;;;;;;13.83;12.37;;;13.50;99.90;;;;;;5089454;28;20309;-51
2022/10/24 05:19:16;;;;;;;13.53;11.70;;;13.50;99.90;;;;;;5089361;28;20574;-53
2022/10/24 05:21:42;;;;;;;14.27;12.50;;;13.60;99.90;;;;;;5089219;28;20240;-52
2022/10/24 05:24:08;;;;;;;13.27;11.40;;;13.50;99.90;;;;;;5089025;28;20422;-51
2022/10/24 05:26:34;;;;;;;14.73;11.50;;;13.50;99.90;;;;;;5088774;28;20418;-50
2022/10/24 05:28:59;;;;;;;13.40;11.83;;;13.50;99.90;;;;;;5060978;28;20426;-52
2022/10/24 05:31:25;;;;;;;13.57;10.93;;;13.60;99.90;;;;;;5088626;28;20677;-51
2022/10/24 05:33:50;;;;;;;16.83;12.17;;;13.60;99.90;;;;;;5088840;28;20566;-52
2022/10/24 05:36:16;;;;;;;13.17;11.13;;;13.70;99.90;;;;;;5088891;28;20191;-53
2022/10/24 05:38:42;;;;;;;14.03;10.83;;;13.70;99.90;;;;;;5088707;28;20188;-53
2022/10/24 05:41:07;;;;;;;14.17;10.43;;;13.70;99.90;;;;;;5088941;28;20589;-52
2022/10/24 05:43:33;;;;;;;12.30;10.97;;;13.80;99.90;;;;;;5088511;28;20205;-50
2022/10/24 05:45:58;;;;;;;14.83;10.80;;;13.80;99.90;;;;;;5088209;28;20259;-54
2022/10/24 05:48:24;;;;;;;16.10;12.30;;;13.80;99.90;;;;;;5092782;28;20191;-55
2022/10/24 05:50:49;;;;;;;14.43;11.30;;;13.90;99.90;;;;;;5095575;28;20218;-50
2022/10/24 05:53:15;;;;;;;15.10;11.30;;;13.90;99.90;;;;;;5101703;28;20293;-51
2022/10/24 05:55:40;;;;;;;13.90;11.10;;;13.90;99.90;;;;;;5094939;28;20206;-52
2022/10/24 05:58:06;;;;;;;15.17;12.40;;;13.90;99.90;;;;;;5087236;28;20664;-52
2022/10/24 06:00:32;;;;;;;13.77;10.53;;;13.90;99.90;;;;;;5087679;28;20216;-52
2022/10/24 06:02:59;;;;;;;12.77;10.50;;;13.90;99.90;;;;;;5087737;28;20599;-54
2022/10/24 06:05:24;;;;;;;14.17;11.57;;;13.90;99.90;;;;;;5088026;28;20517;-51
2022/10/24 06:07:50;;;;;;;15.77;11.10;;;13.80;99.90;;;;;;5088417;28;20565;-54
2022/10/24 06:10:16;;;;;;;15.60;11.23;;;13.80;99.90;;;;;;5086849;28;20252;-53
2022/10/24 06:12:41;;;;;;;15.27;11.13;;;13.90;99.90;;;;;;5088404;28;20212;-54
2022/10/24 06:15:08;;;;;;;13.20;11.00;;;13.90;99.90;;;;;;5088272;28;20441;-50
2022/10/24 06:17:34;;;;;;;15.57;11.77;;;13.90;99.90;;;;;;5088588;28;20206;-51
2022/10/24 06:19:59;;;;;;;12.33;10.10;;;14.00;99.90;;;;;;5088422;28;20422;-51
2022/10/24 06:22:28;;;;;;;14.30;11.07;;;14.10;99.90;;;;;;5088328;28;20580;-52
2022/10/24 06:24:54;;;;;;;11.60;10.10;;;14.20;99.90;;;;;;5088248;28;21024;-53
2022/10/24 06:27:20;;;;;;;12.87;10.27;;;14.30;99.90;;;;;;5087493;28;20481;-48
2022/10/24 06:29:45;;;;;;;15.57;9.33;;;14.40;99.90;;;;;;5086865;28;20490;-50
2022/10/24 06:32:11;;;;;;;12.53;10.00;;;14.50;99.90;;;;;;5085004;28;20196;-50
2022/10/24 06:34:37;;;;;;;14.60;9.17;;;14.60;99.90;;;;;;5076246;28;20184;-49
2022/10/24 06:37:02;;;;;;;11.57;9.00;;;14.70;99.90;;;;;;5087900;28;20215;-48
2022/10/24 06:39:28;;;;;;;11.33;9.40;;;14.70;99.90;;;;;;5088332;28;20628;-49
2022/10/24 06:41:54;;;;;;;12.90;9.43;;;14.80;99.90;;;;;;5087912;28;20971;-53
2022/10/24 06:44:19;;;;;;;11.03;9.03;;;14.80;99.90;;;;;;5090202;28;20620;-53
2022/10/24 06:46:45;;;;;;;10.13;8.50;;;14.90;99.90;;;;;;5092181;28;20602;-51
2022/10/24 06:49:12;;;;;;;10.60;9.00;;;14.90;99.90;;;;;;5103446;28;20594;-54
2022/10/24 06:51:38;;;;;;;10.63;9.00;;;15.00;99.90;;;;;;5104112;28;20872;-50
2022/10/24 06:54:04;;;;;;;11.23;8.73;;;15.10;99.90;;;;;;5096607;28;20426;-53
2022/10/24 06:56:30;;;;;;;9.33;8.27;;;15.10;99.90;;;;;;5089773;28;20430;-54
2022/10/24 06:58:56;;;;;;;15.80;8.80;;;15.20;99.90;;;;;;5088005;28;20441;-51
2022/10/24 07:01:24;;;;;;;12.00;9.47;;;15.30;99.90;;;;;;5079510;28;20199;-54
2022/10/24 07:03:51;;;;;;;10.20;9.10;;;15.30;99.90;;;;;;5090886;28;20557;-51
2022/10/24 07:06:26;;;;;;;10.30;9.20;;;15.30;99.90;;;;;;5091541;28;20472;-53
2022/10/24 07:08:53;;;;;;;11.30;9.07;;;15.50;99.90;;;;;;5091983;28;20431;-50
2022/10/24 07:11:19;;;;;;;9.53;8.53;;;15.60;99.90;;;;;;5091647;28;20478;-53
2022/10/24 07:13:44;;;;;;;13.13;9.80;;;15.60;99.90;;;;;;5092014;28;20413;-49
2022/10/24 07:16:10;;;;;;;11.97;8.90;;;15.70;99.90;;;;;;5091548;28;20324;-53
2022/10/24 07:18:36;;;;;;;11.60;8.60;;;15.80;99.90;;;;;;5091362;28;20201;-51
2022/10/24 07:21:04;;;;;;;9.83;8.80;;;15.80;99.90;;;;;;5091206;28;20432;-53
2022/10/24 07:23:31;;;;;;;10.30;8.97;;;15.80;99.90;;;;;;5091666;28;20585;-49
2022/10/24 07:26:01;;;;;;;10.53;8.90;;;16.00;99.90;;;;;;5089542;28;20440;-51
2022/10/24 07:28:26;;;;;;;9.33;8.00;;;16.00;99.90;;;;;;5089041;28;21217;-51
2022/10/24 07:30:52;;;;;;;11.27;8.70;;;16.10;99.90;;;;;;5089687;28;20523;-52
2022/10/24 07:33:18;;;;;;;10.23;8.50;;;16.30;99.90;;;;;;5091425;28;20278;-53
2022/10/24 07:35:43;;;;;;;10.87;8.30;;;16.40;99.90;;;;;;5091081;28;20196;-52
2022/10/24 07:38:09;;;;;;;10.90;7.90;;;16.50;99.90;;;;;;5091369;28;20187;-51
2022/10/24 07:40:34;;;;;;;10.27;8.63;;;16.60;99.90;;;;;;5089799;28;20210;-50
2022/10/24 07:43:00;;;;;;;8.77;7.93;;;16.70;99.90;;;;;;5091413;28;20209;-49
2022/10/24 07:45:27;;;;;;;11.67;8.60;;;16.70;99.90;;;;;;5090815;28;20198;-51
2022/10/24 07:47:52;;;;;;;10.23;7.80;;;16.70;99.90;;;;;;5091094;28;20222;-50
2022/10/24 07:50:18;;;;;;;9.87;8.20;;;16.80;99.90;;;;;;5090823;28;20508;-52
2022/10/24 07:52:44;;;;;;;11.10;8.73;;;17.00;99.90;;;;;;5091000;28;20527;-52
2022/10/24 07:55:09;;;;;;;11.53;8.23;;;17.10;99.90;;;;;;5089985;28;20215;-52
2022/10/24 07:57:35;;;;;;;10.00;7.83;;;17.20;99.90;;;;;;5090963;28;20771;-47
2022/10/24 08:00:01;;;;;;;10.00;9.10;;;17.40;99.90;;;;;;5089530;28;20192;-50
2022/10/24 08:02:26;;;;;;;11.07;8.20;;;17.90;99.90;;;;;;5091049;28;20246;-51
2022/10/24 08:04:52;;;;;;;10.20;7.83;;;18.30;99.90;;;;;;5089694;28;20207;-49
2022/10/24 08:07:17;;;;;;;9.43;8.23;;;18.70;99.90;;;;;;5090822;28;20764;-48
2022/10/24 08:09:45;;;;;;;11.40;10.00;;;18.90;99.90;;;;;;5090375;28;20514;-48
2022/10/24 08:12:11;;;;;;;10.53;8.40;;;19.00;99.90;;;;;;5090820;28;20532;-51
2022/10/24 08:14:38;;;;;;;12.70;9.20;;;19.00;99.90;;;;;;5090401;28;20422;-53
2022/10/24 08:17:04;;;;;;;11.23;8.40;;;19.00;99.90;;;;;;5090370;28;20744;-54
2022/10/24 08:19:30;;;;;;;11.23;8.87;;;19.20;99.90;;;;;;5090306;28;20895;-51
2022/10/24 08:21:56;;;;;;;9.60;8.60;;;19.30;99.90;;;;;;5090296;28;20477;-54
2022/10/24 08:24:22;;;;;;;10.33;9.30;;;19.30;99.90;;;;;;5090113;28;20513;-51
2022/10/24 08:26:48;;;;;;;13.90;8.87;;;19.10;99.90;;;;;;5090401;28;20210;-52
2022/10/24 08:29:20;;;;;;;11.47;8.33;;;18.60;99.90;;;;;;5090242;28;20651;-50
2022/10/24 08:31:49;;;;;;;10.90;8.57;;;18.60;99.90;;;;;;5090024;28;20469;-48
2022/10/24 08:34:15;;;;;;;9.63;8.50;;;18.60;99.90;;;;;;5089626;28;20452;-55
2022/10/24 08:36:41;;;;;;;10.23;8.47;;;18.60;99.90;;;;;;5090173;28;20421;-48
2022/10/24 08:39:07;;;;;;;11.17;8.70;;;18.70;99.90;;;;;;5089907;28;20846;-49
2022/10/24 08:41:42;;;;;;;11.63;9.23;;;18.60;99.90;;;;;;5090191;28;20453;-51
2022/10/24 08:44:28;;;;;;;10.53;8.77;;;18.50;99.90;;;;;;5089988;28;20426;-49
2022/10/24 08:47:01;;;;;;;10.30;9.20;;;18.50;99.90;;;;;;5089578;28;20503;-50
2022/10/24 08:49:39;;;;;;;10.20;8.80;;;18.50;99.90;;;;;;5089705;28;20986;-50
2022/10/24 08:52:29;;;;;;;10.63;8.20;;;18.50;99.90;;;;;;5090219;28;20500;-49
2022/10/24 08:54:58;;;;;;;10.60;7.70;;;18.50;99.90;;;;;;5089830;28;20963;-51
2022/10/24 08:57:27;;;;;;;9.50;8.10;;;18.60;99.90;;;;;;5089773;28;20432;-53
2022/10/24 08:59:57;;;;;;;8.90;8.10;;;18.60;99.90;;;;;;5089668;28;20888;-51
2022/10/24 09:02:25;;;;;;;10.33;8.10;;;18.50;99.90;;;;;;5089670;28;20425;-50
2022/10/24 09:04:56;;;;;;;9.10;7.53;;;18.70;99.90;;;;;;5088329;28;20997;-49
2022/10/24 09:07:23;;;;;;;9.23;7.70;;;18.60;99.90;;;;;;5089290;28;20462;-52
2022/10/24 09:09:51;;;;;;;9.17;7.70;;;18.70;99.90;;;;;;5089842;28;20500;-51
2022/10/24 09:12:19;;;;;;;8.43;7.53;;;18.70;99.90;;;;;;5070599;28;20430;-51
2022/10/24 09:14:53;;;;;;;8.83;7.33;;;18.80;99.90;;;;;;5089287;28;20422;-54
2022/10/24 09:17:31;;;;;;;8.37;7.50;;;18.90;99.90;;;;;;5089403;28;20420;-52
2022/10/24 09:20:02;;;;;;;9.53;8.03;;;18.80;99.90;;;;;;5089847;28;20918;-47
2022/10/24 09:22:32;;;;;;;10.27;8.03;;;18.80;99.90;;;;;;5089207;28;20729;-51
2022/10/24 09:25:04;;;;;;;10.53;8.00;;;18.70;99.90;;;;;;5088953;28;20802;-50
2022/10/24 09:27:34;;;;;;;7.90;7.10;;;18.80;99.90;;;;;;5088971;28;20435;-49
2022/10/24 09:30:00;;;;;;;9.30;8.30;;;18.70;99.90;;;;;;5088895;28;20977;-50
2022/10/24 09:32:31;;;;;;;9.43;7.70;;;18.70;99.90;;;;;;5087802;28;20438;-50
2022/10/24 09:35:04;;;;;;;8.10;7.30;;;18.60;99.90;;;;;;5070647;28;20444;-54
2022/10/24 09:37:41;;;;;;;8.43;7.23;;;18.80;99.90;;;;;;5088083;28;20950;-52
2022/10/24 09:40:25;;;;;;;8.50;7.10;;;18.90;99.90;;;;;;5089025;28;20915;-52
2022/10/24 09:42:59;;;;;;;9.00;7.47;;;18.90;99.90;;;;;;5089094;28;20460;-50
2022/10/24 09:45:37;;;;;;;8.43;7.63;;;18.90;99.90;;;;;;5088804;28;20441;-50
2022/10/24 09:48:16;;;;;;;8.77;7.87;;;19.00;99.90;;;;;;5088793;28;20815;-50
2022/10/24 09:50:44;;;;;;;11.60;8.50;;;19.00;99.90;;;;;;5088599;28;20555;-53
2022/10/24 09:53:30;;;;;;;9.83;8.00;;;19.10;99.90;;;;;;5070527;28;20437;-49
2022/10/24 09:56:00;;;;;;;8.90;7.37;;;19.20;99.90;;;;;;5088526;28;20409;-50
2022/10/24 09:58:32;;;;;;;8.30;6.60;;;19.30;99.90;;;;;;5088752;28;20439;-52
2022/10/24 10:01:00;;;;;;;7.90;6.77;;;19.40;99.90;;;;;;5089037;28;20520;-50
2022/10/24 10:03:27;;;;;;;8.67;6.77;;;19.60;99.90;;;;;;5086993;28;20475;-51
2022/10/24 10:05:56;;;;;;;8.93;6.97;;;19.80;99.90;;;;;;5087878;28;20481;-51
2022/10/24 10:08:27;;;;;;;11.97;6.80;;;19.90;99.90;;;;;;5088553;28;20483;-52
2022/10/24 10:11:05;;;;;;;8.60;6.87;;;20.20;99.90;;;;;;5088624;28;20496;-54
2022/10/24 10:13:44;;;;;;;12.13;7.60;;;20.60;99.90;;;;;;5088676;28;20779;-50
2022/10/24 10:16:20;;;;;;;7.20;6.13;;;20.80;99.90;;;;;;5070265;28;20438;-49
2022/10/24 10:18:47;;;;;;;8.70;6.63;;;21.00;99.90;;;;;;5088469;28;20421;-51
2022/10/24 10:21:24;;;;;;;7.70;7.00;;;21.20;99.90;;;;;;5088559;28;20926;-50
2022/10/24 10:23:53;;;;;;;8.20;6.57;;;21.40;99.90;;;;;;5089626;28;20520;-52
2022/10/24 10:26:23;;;;;;;10.40;6.77;;;21.60;99.90;;;;;;5074354;28;20778;-50
2022/10/24 10:28:55;;;;;;;10.00;6.80;;;21.60;99.90;;;;;;5091363;28;20440;-54
2022/10/24 10:31:26;;;;;;;9.27;6.90;;;21.60;99.90;;;;;;5092253;28;20454;-52
2022/10/24 10:34:11;;;;;;;7.00;6.27;;;21.60;99.90;;;;;;5092435;28;20420;-51
2022/10/24 10:36:55;;;;;;;8.37;6.33;;;21.40;99.90;;;;;;5092278;28;20429;-48
2022/10/24 10:39:27;;;;;;;6.73;6.00;;;21.30;99.90;;;;;;5092455;28;20962;-50
2022/10/24 10:41:55;;;;;;;8.60;6.20;;;21.40;99.90;;;;;;5092195;28;20848;-54
2022/10/24 10:44:23;;;;;;;9.90;6.90;;;21.30;99.90;;;;;;5092547;28;20419;-49
2022/10/24 10:47:14;;;;;;;7.63;6.87;;;21.20;99.90;;;;;;5092190;28;20474;-50
2022/10/24 10:49:41;;;;;;;8.47;6.80;;;21.20;99.90;;;;;;5092142;28;20765;-54
2022/10/24 10:52:23;;;;;;;7.27;5.93;;;21.00;99.90;;;;;;5091023;28;20431;-53
2022/10/24 10:55:10;;;;;;;8.13;6.80;;;20.90;99.90;;;;;;5091673;28;20823;-53
2022/10/24 10:58:03;;;;;;;8.63;6.20;;;20.90;99.90;;;;;;5086767;28;20901;-53
2022/10/24 11:00:40;;;;;;;6.57;5.50;;;20.80;99.90;;;;;;5083019;28;20447;-51
2022/10/24 11:03:29;;;;;;;6.50;5.90;;;20.80;99.90;;;;;;5079090;28;20426;-53
2022/10/24 11:06:16;;;;;;;7.70;7.00;;;20.80;99.90;;;;;;5091664;28;20504;-52
2022/10/24 11:08:44;;;;;;;7.53;5.80;;;20.80;99.90;;;;;;5091952;28;20426;-52
2022/10/24 11:11:28;;;;;;;7.80;5.70;;;20.70;99.90;;;;;;5091664;28;20480;-53
2022/10/24 11:14:08;;;;;;;7.63;5.30;;;20.60;99.90;;;;;;5091672;28;21615;-55
2022/10/24 11:16:36;;;;;;;6.07;5.47;;;20.60;99.90;;;;;;5091746;28;20415;-55
2022/10/24 11:19:39;;;;;;;6.90;4.77;;;20.50;99.90;;;;;;5091415;28;20421;-52
2022/10/24 11:22:09;;;;;;;9.17;5.00;;;20.60;99.90;;;;;;5088340;28;20472;-50
2022/10/24 11:24:46;;;;;;;7.77;5.60;;;20.50;99.90;;;;;;5073318;28;20860;-53
2022/10/24 11:27:25;;;;;;;7.73;4.57;;;20.60;99.90;;;;;;5091465;28;20422;-52
2022/10/24 11:30:15;;;;;;;8.20;5.60;;;20.50;99.90;;;;;;5090062;28;20466;-52
2022/10/24 11:32:53;;;;;;;5.80;5.20;;;20.50;99.90;;;;;;5091459;28;20754;-50
2022/10/24 11:35:32;;;;;;;7.70;5.60;;;20.40;99.90;;;;;;5091092;28;20550;-50
2022/10/24 11:38:17;;;;;;;6.10;5.07;;;20.40;99.90;;;;;;5072891;28;20435;-54
2022/10/24 11:40:46;;;;;;;7.37;5.40;;;20.30;99.90;;;;;;5091791;28;20430;-51
2022/10/24 11:43:34;;;;;;;5.43;4.80;;;20.30;99.90;;;;;;5091087;28;20507;-51
2022/10/24 11:46:06;;;;;;;6.27;5.23;;;20.30;99.90;;;;;;5091188;28;20415;-53
2022/10/24 11:48:44;;;;;;;8.17;5.03;;;20.30;99.90;;;;;;5090179;28;20475;-54
2022/10/24 11:51:20;;;;;;;6.50;4.77;;;20.20;99.90;;;;;;5090950;28;20607;-56
2022/10/24 11:54:21;;;;;;;4.30;3.73;;;20.20;99.90;;;;;;5090757;28;20429;-50
2022/10/24 11:56:55;;;;;;;6.40;4.77;;;20.10;99.90;;;;;;5090840;28;20426;-51
2022/10/24 11:59:24;;;;;;;4.07;3.67;;;20.00;99.90;;;;;;5091196;28;20458;-54
2022/10/24 12:01:56;;;;;;;4.73;3.40;;;20.10;97.70;;;;;;5090775;28;20428;-53
2022/10/24 12:04:40;;;;;;;3.37;3.07;;;20.10;97.40;;;;;;5090827;28;20476;-53
2022/10/24 12:07:28;;;;;;;5.00;3.53;;;20.10;97.70;;;;;;5090498;28;20474;-49
2022/10/24 12:10:13;;;;;;;5.50;3.67;;;20.10;97.90;;;;;;5090577;28;20577;-55
2022/10/24 12:12:42;;;;;;;3.97;3.60;;;20.10;98.50;;;;;;5090830;28;20864;-54
2022/10/24 12:15:35;;;;;;;4.30;3.90;;;19.90;99.90;;;;;;5090674;28;20478;-54
2022/10/24 12:18:23;;;;;;;3.80;3.50;;;19.80;99.30;;;;;;5089311;28;20419;-53
2022/10/24 12:20:52;;;;;;;4.93;3.90;;;19.80;97.30;;;;;;5086369;28;20421;-49
2022/10/24 12:23:27;;;;;;;4.23;3.37;;;19.90;97.30;;;;;;5090427;28;20419;-54
2022/10/24 12:26:12;;;;;;;3.83;3.53;;;20.00;97.00;;;;;;5090295;28;20437;-49
2022/10/24 12:28:38;;;;;;;5.03;3.90;;;20.10;94.80;;;;;;5088975;28;20434;-51
2022/10/24 12:31:31;;;;;;;4.83;3.93;;;20.20;99.30;;;;;;5090573;28;20473;-54
2022/10/24 12:34:18;;;;;;;5.03;4.53;;;20.10;99.50;;;;;;5086693;28;20430;-54
2022/10/24 12:37:04;;;;;;;8.33;4.17;;;19.90;99.90;;;;;;5090050;28;20911;-52
2022/10/24 12:39:36;;;;;;;6.37;4.70;;;19.80;99.90;;;;;;5090156;28;20512;-49
2022/10/24 12:42:02;;;;;;;4.90;4.47;;;19.80;99.90;;;;;;5090370;28;20437;-55
2022/10/24 12:44:31;;;;;;;6.20;4.30;;;19.80;99.90;;;;;;5090120;28;20421;-49
2022/10/24 12:46:57;;;;;;;5.03;4.43;;;19.60;99.90;;;;;;5088158;28;20188;-51
2022/10/24 12:49:31;;;;;;;6.93;4.50;;;19.50;99.90;;;;;;5090807;28;20769;-51
2022/10/24 12:51:57;;;;;;;8.53;4.60;;;19.60;99.90;;;;;;5089754;28;20988;-48